sensor_id;sensor_type;location;lat;lon;timestamp;pressure;altitude;pressure_sealevel;temperature;humidity
31096;BME280;17749;51.962;8.560;2024-02-21T06:02:03;100381.88;;;7.62;100.00
31096;BME280;17749;51.962;8.560;2024-02-21T06:04:35;100367.75;;;7.63;100.00
31096;BME280;17749;51.962;8.560;2024-02-21T06:07:20;100371.22;;;7.65;100.00
31096;BME280;17749;51.962;8.560;2024-02-21T06:09:56;100373.84;;;7.65;100.00
31096;BME280;17749;51.962;8.560;2024-02-21T06:12:23;100365.09;;;7.63;100.00
31096;BME280;17749;51.962;8.560;2024-02-21T06:15:30;100373.84;;;7.66;100.00
31096;BME280;17749;51.962;8.560;2024-02-21T06:17:58;100366.81;;;7.65;100.00
31096;BME280;17749;51.962;8.560;2024-02-21T06:23:43;100370.31;;;7.66;100.00
31096;BME280;17749;51.962;8.560;2024-02-21T06:26:26;100368.53;;;7.66;100.00
31096;BME280;17749;51.962;8.560;2024-02-21T06:28:56;100369.47;;;7.64;100.00
31096;BME280;17749;51.962;8.560;2024-02-21T06:31:45;100374.63;;;7.70;100.00
31096;BME280;17749;51.962;8.560;2024-02-21T06:34:27;100369.38;;;7.68;100.00
31096;BME280;17749;51.962;8.560;2024-02-21T06:37:04;100362.25;;;7.71;100.00
31096;BME280;17749;51.962;8.560;2024-02-21T06:39:32;100355.19;;;7.71;100.00
31096;BME280;17749;51.962;8.560;2024-02-21T06:41:59;100345.50;;;7.68;100.00
31096;BME280;17749;51.962;8.560;2024-02-21T06:44:29;100341.09;;;7.69;100.00
31096;BME280;17749;51.962;8.560;2024-02-21T06:46:56;100337.47;;;7.73;100.00
31096;BME280;17749;51.962;8.560;2024-02-21T06:49:25;100334.81;;;7.73;100.00
31096;BME280;17749;51.962;8.560;2024-02-21T06:51:53;100330.41;;;7.72;100.00
31096;BME280;17749;51.962;8.560;2024-02-21T06:54:20;100329.63;;;7.68;100.00
31096;BME280;17749;51.962;8.560;2024-02-21T06:56:47;100330.47;;;7.69;100.00
31096;BME280;17749;51.962;8.560;2024-02-21T06:59:14;100327.81;;;7.71;100.00
31096;BME280;17749;51.962;8.560;2024-02-21T07:01:48;100326.00;;;7.71;100.00
31096;BME280;17749;51.962;8.560;2024-02-21T07:04:16;100326.00;;;7.71;100.00
31096;BME280;17749;51.962;8.560;2024-02-21T07:06:43;100331.25;;;7.73;100.00
31096;BME280;17749;51.962;8.560;2024-02-21T07:09:10;100325.19;;;7.69;100.00
31096;BME280;17749;51.962;8.560;2024-02-21T07:11:37;100320.72;;;7.71;100.00
31096;BME280;17749;51.962;8.560;2024-02-21T07:14:04;100317.16;;;7.72;100.00
31096;BME280;17749;51.962;8.560;2024-02-21T07:16:31;100321.38;;;7.79;100.00
31096;BME280;17749;51.962;8.560;2024-02-21T07:19:00;100325.81;;;7.79;100.00
31096;BME280;17749;51.962;8.560;2024-02-21T07:21:27;100329.34;;;7.79;100.00
31096;BME280;17749;51.962;8.560;2024-02-21T07:23:54;100320.44;;;7.82;100.00
31096;BME280;17749;51.962;8.560;2024-02-21T07:26:21;100332.00;;;7.79;100.00
31096;BME280;17749;51.962;8.560;2024-02-21T07:28:49;100337.38;;;7.76;100.00
31096;BME280;17749;51.962;8.560;2024-02-21T07:31:16;100332.97;;;7.75;100.00
31096;BME280;17749;51.962;8.560;2024-02-21T07:33:43;100334.66;;;7.78;100.00
31096;BME280;17749;51.962;8.560;2024-02-21T07:36:11;100344.31;;;7.80;100.00
31096;BME280;17749;51.962;8.560;2024-02-21T07:38:39;100340.69;;;7.86;100.00
31096;BME280;17749;51.962;8.560;2024-02-21T07:41:05;100343.25;;;7.89;100.00
31096;BME280;17749;51.962;8.560;2024-02-21T07:43:33;100340.47;;;7.94;100.00
31096;BME280;17749;51.962;8.560;2024-02-21T07:46:00;100340.47;;;7.94;100.00
31096;BME280;17749;51.962;8.560;2024-02-21T07:48:27;100329.84;;;7.94;100.00
31096;BME280;17749;51.962;8.560;2024-02-21T07:50:56;100327.16;;;7.97;100.00
31096;BME280;17749;51.962;8.560;2024-02-21T07:53:23;100329.78;;;7.97;100.00
31096;BME280;17749;51.962;8.560;2024-02-21T07:55:50;100333.25;;;7.99;100.00
31096;BME280;17749;51.962;8.560;2024-02-21T07:58:17;100319.09;;;8.00;100.00
31096;BME280;17749;51.962;8.560;2024-02-21T08:00:44;100325.16;;;8.05;100.00
31096;BME280;17749;51.962;8.560;2024-02-21T08:03:11;100331.22;;;8.10;100.00
31096;BME280;17749;51.962;8.560;2024-02-21T08:05:38;100334.66;;;8.13;100.00
31096;BME280;17749;51.962;8.560;2024-02-21T08:08:05;100323.94;;;8.18;100.00
31096;BME280;17749;51.962;8.560;2024-02-21T08:10:32;100323.06;;;8.18;100.00
31096;BME280;17749;51.962;8.560;2024-02-21T08:12:59;100318.66;;;8.17;100.00
31096;BME280;17749;51.962;8.560;2024-02-21T08:15:26;100311.50;;;8.20;100.00
31096;BME280;17749;51.962;8.560;2024-02-21T08:17:56;100303.38;;;8.25;100.00
31096;BME280;17749;51.962;8.560;2024-02-21T08:20:27;100300.63;;;8.29;100.00
31096;BME280;17749;51.962;8.560;2024-02-21T08:22:54;100302.34;;;8.30;100.00
31096;BME280;17749;51.962;8.560;2024-02-21T08:25:21;100298.78;;;8.31;100.00
31096;BME280;17749;51.962;8.560;2024-02-21T08:27:48;100291.66;;;8.33;100.00
31096;BME280;17749;51.962;8.560;2024-02-21T08:30:15;100285.34;;;8.38;100.00
31096;BME280;17749;51.962;8.560;2024-02-21T08:32:42;100290.66;;;8.39;100.00
31096;BME280;17749;51.962;8.560;2024-02-21T08:35:10;100279.97;;;8.41;100.00
31096;BME280;17749;51.962;8.560;2024-02-21T08:37:37;100273.56;;;8.49;100.00
31096;BME280;17749;51.962;8.560;2024-02-21T08:40:04;100271.47;;;8.61;100.00
31096;BME280;17749;51.962;8.560;2024-02-21T08:42:38;100264.09;;;8.70;100.00
31096;BME280;17749;51.962;8.560;2024-02-21T08:45:06;100261.97;;;8.82;100.00
31096;BME280;17749;51.962;8.560;2024-02-21T08:47:33;100267.06;;;8.89;100.00
31096;BME280;17749;51.962;8.560;2024-02-21T08:50:00;100264.59;;;8.83;100.00
31096;BME280;17749;51.962;8.560;2024-02-21T08:52:40;100260.16;;;8.84;100.00
31096;BME280;17749;51.962;8.560;2024-02-21T08:55:08;100261.78;;;8.88;100.00
31096;BME280;17749;51.962;8.560;2024-02-21T08:57:35;100249.19;;;8.94;100.00
31096;BME280;17749;51.962;8.560;2024-02-21T09:00:05;100242.28;;;8.89;100.00
31096;BME280;17749;51.962;8.560;2024-02-21T09:02:42;100243.81;;;8.96;100.00
31096;BME280;17749;51.962;8.560;2024-02-21T09:05:10;100240.16;;;9.00;100.00
31096;BME280;17749;51.962;8.560;2024-02-21T09:07:38;100240.16;;;9.00;100.00
31096;BME280;17749;51.962;8.560;2024-02-21T09:10:06;100241.03;;;9.00;100.00
31096;BME280;17749;51.962;8.560;2024-02-21T09:12:33;100241.13;;;8.97;100.00
31096;BME280;17749;51.962;8.560;2024-02-21T09:15:00;100243.78;;;8.97;100.00
31096;BME280;17749;51.962;8.560;2024-02-21T09:17:27;100240.13;;;9.02;100.00
31096;BME280;17749;51.962;8.560;2024-02-21T09:19:56;100239.34;;;8.98;100.00
31096;BME280;17749;51.962;8.560;2024-02-21T09:22:27;100244.38;;;9.07;100.00
31096;BME280;17749;51.962;8.560;2024-02-21T09:24:54;100240.84;;;9.07;100.00
31096;BME280;17749;51.962;8.560;2024-02-21T09:27:21;100250.59;;;9.06;100.00
31096;BME280;17749;51.962;8.560;2024-02-21T09:29:49;100239.06;;;9.07;100.00
31096;BME280;17749;51.962;8.560;2024-02-21T09:32:17;100243.44;;;9.08;100.00
31096;BME280;17749;51.962;8.560;2024-02-21T09:34:44;100242.34;;;9.15;100.00
31096;BME280;17749;51.962;8.560;2024-02-21T09:37:12;100242.44;;;9.12;100.00
31096;BME280;17749;51.962;8.560;2024-02-21T09:39:39;100241.31;;;9.19;100.00
31096;BME280;17749;51.962;8.560;2024-02-21T09:42:06;100235.50;;;9.35;100.00
31096;BME280;17749;51.962;8.560;2024-02-21T09:44:36;100231.16;;;9.32;100.00
31096;BME280;17749;51.962;8.560;2024-02-21T09:47:09;100229.22;;;9.37;100.00
31096;BME280;17749;51.962;8.560;2024-02-21T09:49:36;100218.28;;;9.47;100.00
31096;BME280;17749;51.962;8.560;2024-02-21T09:52:05;100204.88;;;9.50;100.00
31096;BME280;17749;51.962;8.560;2024-02-21T09:54:34;100211.56;;;9.61;100.00
31096;BME280;17749;51.962;8.560;2024-02-21T09:57:04;100194.09;;;9.54;100.00
31096;BME280;17749;51.962;8.560;2024-02-21T09:59:33;100194.09;;;9.54;100.00
31096;BME280;17749;51.962;8.560;2024-02-21T10:02:00;100196.59;;;9.59;100.00
31096;BME280;17749;51.962;8.560;2024-02-21T10:04:28;100191.94;;;9.65;100.00
31096;BME280;17749;51.962;8.560;2024-02-21T10:06:56;100191.94;;;9.65;100.00
31096;BME280;17749;51.962;8.560;2024-02-21T10:09:24;100190.69;;;9.76;100.00
31096;BME280;17749;51.962;8.560;2024-02-21T10:11:56;100190.94;;;9.68;100.00
31096;BME280;17749;51.962;8.560;2024-02-21T10:14:33;100184.66;;;9.71;100.00
31096;BME280;17749;51.962;8.560;2024-02-21T10:17:02;100194.63;;;9.64;100.00
31096;BME280;17749;51.962;8.560;2024-02-21T10:19:30;100179.66;;;9.61;100.00
31096;BME280;17749;51.962;8.560;2024-02-21T10:22:02;100165.56;;;9.59;100.00
31096;BME280;17749;51.962;8.560;2024-02-21T10:24:31;100167.50;;;9.54;100.00
31096;BME280;17749;51.962;8.560;2024-02-21T10:27:03;100165.44;;;9.62;100.00
31096;BME280;17749;51.962;8.560;2024-02-21T10:29:31;100165.56;;;9.59;100.00
31096;BME280;17749;51.962;8.560;2024-02-21T10:32:08;100169.00;;;9.61;100.00
31096;BME280;17749;51.962;8.560;2024-02-21T10:34:37;100169.94;;;9.60;100.00
31096;BME280;17749;51.962;8.560;2024-02-21T10:37:06;100167.50;;;9.54;100.00
31096;BME280;17749;51.962;8.560;2024-02-21T10:39:38;100164.78;;;9.56;100.00
31096;BME280;17749;51.962;8.560;2024-02-21T10:42:05;100161.97;;;9.60;100.00
31096;BME280;17749;51.962;8.560;2024-02-21T10:44:34;100152.19;;;9.61;100.00
31096;BME280;17749;51.962;8.560;2024-02-21T10:47:12;100155.44;;;9.69;100.00
31096;BME280;17749;51.962;8.560;2024-02-21T10:49:44;100150.47;;;9.60;100.00
31096;BME280;17749;51.962;8.560;2024-02-21T10:52:27;100145.19;;;9.58;100.00
31096;BME280;17749;51.962;8.560;2024-02-21T10:55:03;100137.22;;;9.58;100.00
31096;BME280;17749;51.962;8.560;2024-02-21T10:57:34;100141.03;;;9.51;100.00
31096;BME280;17749;51.962;8.560;2024-02-21T11:00:03;100140.22;;;9.49;100.00
31096;BME280;17749;51.962;8.560;2024-02-21T11:02:34;100121.81;;;9.43;100.00
31096;BME280;17749;51.962;8.560;2024-02-21T11:05:02;100120.03;;;9.43;100.00
31096;BME280;17749;51.962;8.560;2024-02-21T11:07:32;100113.81;;;9.43;100.00
31096;BME280;17749;51.962;8.560;2024-02-21T11:10:02;100113.16;;;9.38;100.00
31096;BME280;17749;51.962;8.560;2024-02-21T11:12:32;100109.88;;;9.30;100.00
31096;BME280;17749;51.962;8.560;2024-02-21T11:15:04;100105.53;;;9.27;100.00
31096;BME280;17749;51.962;8.560;2024-02-21T11:17:31;100101.84;;;9.31;100.00
31096;BME280;17749;51.962;8.560;2024-02-21T11:20:11;100102.19;;;9.47;100.00
31096;BME280;17749;51.962;8.560;2024-02-21T11:22:42;100087.22;;;9.44;100.00
31096;BME280;17749;51.962;8.560;2024-02-21T11:25:10;100085.91;;;9.56;100.00
31096;BME280;17749;51.962;8.560;2024-02-21T11:27:46;100077.31;;;9.73;100.00
31096;BME280;17749;51.962;8.560;2024-02-21T11:30:13;100070.78;;;9.82;100.00
31096;BME280;17749;51.962;8.560;2024-02-21T11:32:41;100059.91;;;9.88;100.00
31096;BME280;17749;51.962;8.560;2024-02-21T11:35:19;100041.75;;;9.76;100.00
31096;BME280;17749;51.962;8.560;2024-02-21T11:37:46;100052.34;;;9.77;100.00
31096;BME280;17749;51.962;8.560;2024-02-21T11:40:13;100036.72;;;9.68;100.00
31096;BME280;17749;51.962;8.560;2024-02-21T11:42:40;100033.94;;;9.71;100.00
31096;BME280;17749;51.962;8.560;2024-02-21T11:45:07;100030.53;;;9.68;100.00
31096;BME280;17749;51.962;8.560;2024-02-21T11:47:37;100025.94;;;9.73;100.00
31096;BME280;17749;51.962;8.560;2024-02-21T11:50:10;100016.31;;;9.69;100.00
31096;BME280;17749;51.962;8.560;2024-02-21T11:52:37;100019.78;;;9.71;100.00
31096;BME280;17749;51.962;8.560;2024-02-21T11:55:05;100004.16;;;9.61;100.00
31096;BME280;17749;51.962;8.560;2024-02-21T11:57:37;99998.97;;;9.58;100.00
31096;BME280;17749;51.962;8.560;2024-02-21T12:00:15;100004.16;;;9.61;100.00
31096;BME280;17749;51.962;8.560;2024-02-21T12:02:43;99997.25;;;9.57;100.00
31096;BME280;17749;51.962;8.560;2024-02-21T12:05:12;99994.88;;;9.50;100.00
31096;BME280;17749;51.962;8.560;2024-02-21T12:07:40;99990.41;;;9.50;100.00
31096;BME280;17749;51.962;8.560;2024-02-21T12:10:11;99978.94;;;9.50;100.00
31096;BME280;17749;51.962;8.560;2024-02-21T12:12:38;99981.31;;;9.57;100.00
31096;BME280;17749;51.962;8.560;2024-02-21T12:15:07;99984.78;;;9.59;100.00
31096;BME280;17749;51.962;8.560;2024-02-21T12:17:37;99982.31;;;9.53;100.00
31096;BME280;17749;51.962;8.560;2024-02-21T12:20:07;99991.53;;;9.44;100.00
31096;BME280;17749;51.962;8.560;2024-02-21T12:22:36;99981.63;;;9.48;100.00
31096;BME280;17749;51.962;8.560;2024-02-21T12:25:04;99981.75;;;9.45;100.00
31096;BME280;17749;51.962;8.560;2024-02-21T12:27:42;99979.34;;;9.39;100.00
31096;BME280;17749;51.962;8.560;2024-02-21T12:30:09;99972.38;;;9.35;100.00
31096;BME280;17749;51.962;8.560;2024-02-21T12:32:37;99958.19;;;9.36;100.00
31096;BME280;17749;51.962;8.560;2024-02-21T12:35:04;99957.13;;;9.40;100.00
31096;BME280;17749;51.962;8.560;2024-02-21T12:37:31;99949.84;;;9.45;100.00
31096;BME280;17749;51.962;8.560;2024-02-21T12:40:02;99948.94;;;9.46;100.00
31096;BME280;17749;51.962;8.560;2024-02-21T12:42:33;99943.06;;;9.38;100.00
31096;BME280;17749;51.962;8.560;2024-02-21T12:45:02;99939.34;;;9.42;100.00
31096;BME280;17749;51.962;8.560;2024-02-21T12:47:30;99923.44;;;9.40;100.00
31096;BME280;17749;51.962;8.560;2024-02-21T12:49:58;99905.53;;;9.46;100.00
31096;BME280;17749;51.962;8.560;2024-02-21T12:52:25;99901.13;;;9.68;100.00
31096;BME280;17749;51.962;8.560;2024-02-21T12:54:52;99895.53;;;9.74;100.00
31096;BME280;17749;51.962;8.560;2024-02-21T12:57:23;99886.09;;;9.89;100.00
31096;BME280;17749;51.962;8.560;2024-02-21T12:59:53;99896.59;;;9.92;100.00
31096;BME280;17749;51.962;8.560;2024-02-21T13:02:20;99884.25;;;9.91;100.00
31096;BME280;17749;51.962;8.560;2024-02-21T13:04:48;99909.22;;;9.87;100.00
31096;BME280;17749;51.962;8.560;2024-02-21T13:07:15;99892.16;;;9.71;100.00
31096;BME280;17749;51.962;8.560;2024-02-21T13:09:42;99888.38;;;9.54;100.00
31096;BME280;17749;51.962;8.560;2024-02-21T13:12:09;99877.78;;;9.53;100.00
31096;BME280;17749;51.962;8.560;2024-02-21T13:14:36;99867.72;;;9.39;100.00
31096;BME280;17749;51.962;8.560;2024-02-21T13:17:06;99858.34;;;9.29;100.00
31096;BME280;17749;51.962;8.560;2024-02-21T13:19:33;99846.50;;;9.37;100.00
31096;BME280;17749;51.962;8.560;2024-02-21T13:22:01;99822.66;;;9.36;100.00
31096;BME280;17749;51.962;8.560;2024-02-21T13:24:30;99801.94;;;9.44;100.00
31096;BME280;17749;51.962;8.560;2024-02-21T13:26:57;99785.69;;;9.52;100.00
31096;BME280;17749;51.962;8.560;2024-02-21T13:29:24;99756.38;;;9.53;100.00
31096;BME280;17749;51.962;8.560;2024-02-21T13:31:52;99777.28;;;9.62;100.00
31096;BME280;17749;51.962;8.560;2024-02-21T13:34:19;99765.16;;;9.55;100.00
31096;BME280;17749;51.962;8.560;2024-02-21T13:36:46;99799.84;;;9.52;100.00
31096;BME280;17749;51.962;8.560;2024-02-21T13:39:13;99779.38;;;9.54;100.00
31096;BME280;17749;51.962;8.560;2024-02-21T13:41:43;99772.59;;;9.47;100.00
31096;BME280;17749;51.962;8.560;2024-02-21T13:44:10;99754.97;;;9.44;100.00
31096;BME280;17749;51.962;8.560;2024-02-21T13:46:39;99747.00;;;9.44;100.00
31096;BME280;17749;51.962;8.560;2024-02-21T13:49:07;99726.41;;;9.50;100.00
31096;BME280;17749;51.962;8.560;2024-02-21T13:51:34;99713.84;;;9.53;100.00
31096;BME280;17749;51.962;8.560;2024-02-21T13:54:04;99699.66;;;9.54;100.00
31096;BME280;17749;51.962;8.560;2024-02-21T13:56:31;99699.16;;;9.44;100.00
31096;BME280;17749;51.962;8.560;2024-02-21T13:58:58;99674.19;;;9.49;100.00
31096;BME280;17749;51.962;8.560;2024-02-21T14:01:26;99659.78;;;9.54;100.00
31096;BME280;17749;51.962;8.560;2024-02-21T14:03:55;99657.84;;;9.58;100.00
31096;BME280;17749;51.962;8.560;2024-02-21T14:06:21;99658.44;;;9.64;100.00
31096;BME280;17749;51.962;8.560;2024-02-21T14:08:48;99652.53;;;9.58;100.00
31096;BME280;17749;51.962;8.560;2024-02-21T14:11:15;99690.34;;;9.64;100.00
31096;BME280;17749;51.962;8.560;2024-02-21T14:13:42;99702.84;;;9.62;100.00
31096;BME280;17749;51.962;8.560;2024-02-21T14:16:10;99679.72;;;9.64;100.00
31096;BME280;17749;51.962;8.560;2024-02-21T14:18:42;99669.75;;;9.70;100.00
31096;BME280;17749;51.962;8.560;2024-02-21T14:21:13;99661.50;;;9.76;100.00
31096;BME280;17749;51.962;8.560;2024-02-21T14:23:40;99653.22;;;9.82;100.00
31096;BME280;17749;51.962;8.560;2024-02-21T14:26:07;99645.34;;;9.80;100.00
31096;BME280;17749;51.962;8.560;2024-02-21T14:28:34;99645.53;;;9.76;100.00
31096;BME280;17749;51.962;8.560;2024-02-21T14:31:01;99629.38;;;9.80;100.00
31096;BME280;17749;51.962;8.560;2024-02-21T14:33:30;99618.53;;;9.85;100.00
31096;BME280;17749;51.962;8.560;2024-02-21T14:35:57;99607.81;;;9.86;100.00
31096;BME280;17749;51.962;8.560;2024-02-21T14:38:24;99604.16;;;9.89;100.00
31096;BME280;17749;51.962;8.560;2024-02-21T14:40:51;99614.94;;;9.86;100.00
31096;BME280;17749;51.962;8.560;2024-02-21T14:43:18;99607.31;;;9.78;100.00
31096;BME280;17749;51.962;8.560;2024-02-21T14:45:48;99599.19;;;9.81;100.00
31096;BME280;17749;51.962;8.560;2024-02-21T14:48:15;99593.97;;;9.80;100.00
31096;BME280;17749;51.962;8.560;2024-02-21T14:50:42;99581.28;;;9.85;100.00
31096;BME280;17749;51.962;8.560;2024-02-21T14:53:09;99577.72;;;9.86;100.00
31096;BME280;17749;51.962;8.560;2024-02-21T14:55:36;99562.97;;;9.79;100.00
31096;BME280;17749;51.962;8.560;2024-02-21T14:58:07;99561.91;;;9.83;100.00
31096;BME280;17749;51.962;8.560;2024-02-21T15:00:34;99553.28;;;9.78;100.00
31096;BME280;17749;51.962;8.560;2024-02-21T15:03:02;99550.75;;;9.75;100.00
31096;BME280;17749;51.962;8.560;2024-02-21T15:05:29;99549.09;;;9.72;100.00
31096;BME280;17749;51.962;8.560;2024-02-21T15:07:57;99545.66;;;9.70;100.00
31096;BME280;17749;51.962;8.560;2024-02-21T15:10:24;99541.34;;;9.68;100.00
31096;BME280;17749;51.962;8.560;2024-02-21T15:12:52;99531.69;;;9.65;100.00
31096;BME280;17749;51.962;8.560;2024-02-21T15:15:18;99512.22;;;9.64;100.00
31096;BME280;17749;51.962;8.560;2024-02-21T15:17:45;99503.16;;;9.69;100.00
31096;BME280;17749;51.962;8.560;2024-02-21T15:20:12;99510.22;;;9.70;100.00
31096;BME280;17749;51.962;8.560;2024-02-21T15:22:39;99504.09;;;9.68;100.00
31096;BME280;17749;51.962;8.560;2024-02-21T15:25:07;99501.59;;;9.64;100.00
31096;BME280;17749;51.962;8.560;2024-02-21T15:27:40;99482.19;;;9.62;100.00
31096;BME280;17749;51.962;8.560;2024-02-21T15:30:07;99458.25;;;9.62;100.00
31096;BME280;17749;51.962;8.560;2024-02-21T15:32:34;99450.09;;;9.67;100.00
31096;BME280;17749;51.962;8.560;2024-02-21T15:35:01;99436.84;;;9.65;100.00
31096;BME280;17749;51.962;8.560;2024-02-21T15:37:29;99432.53;;;9.63;100.00
31096;BME280;17749;51.962;8.560;2024-02-21T15:39:56;99441.31;;;9.65;100.00
31096;BME280;17749;51.962;8.560;2024-02-21T15:42:23;99435.25;;;9.61;100.00
31096;BME280;17749;51.962;8.560;2024-02-21T15:44:50;99436.34;;;9.57;100.00
31096;BME280;17749;51.962;8.560;2024-02-21T15:47:17;99423.22;;;9.54;100.00
31096;BME280;17749;51.962;8.560;2024-02-21T15:49:45;99428.59;;;9.53;100.00
31096;BME280;17749;51.962;8.560;2024-02-21T15:52:13;99426.94;;;9.50;100.00
31096;BME280;17749;51.962;8.560;2024-02-21T15:54:40;99428.66;;;9.51;100.00
31096;BME280;17749;51.962;8.560;2024-02-21T15:57:06;99420.75;;;9.50;100.00
31096;BME280;17749;51.962;8.560;2024-02-21T15:59:34;99407.69;;;9.45;100.00
31096;BME280;17749;51.962;8.560;2024-02-21T16:02:01;99414.84;;;9.43;100.00
31096;BME280;17749;51.962;8.560;2024-02-21T16:04:28;99404.38;;;9.40;100.00
31096;BME280;17749;51.962;8.560;2024-02-21T16:06:55;99400.16;;;9.36;100.00
31096;BME280;17749;51.962;8.560;2024-02-21T16:09:22;99397.50;;;9.36;100.00
31096;BME280;17749;51.962;8.560;2024-02-21T16:11:49;99388.88;;;9.31;100.00
31096;BME280;17749;51.962;8.560;2024-02-21T16:14:16;99389.78;;;9.30;100.00
31096;BME280;17749;51.962;8.560;2024-02-21T16:16:43;99385.47;;;9.27;100.00
31096;BME280;17749;51.962;8.560;2024-02-21T16:19:11;99381.25;;;9.23;100.00
31096;BME280;17749;51.962;8.560;2024-02-21T16:21:38;99378.66;;;9.21;100.00
31096;BME280;17749;51.962;8.560;2024-02-21T16:24:05;99382.31;;;9.19;100.00
31096;BME280;17749;51.962;8.560;2024-02-21T16:26:35;99380.78;;;9.13;100.00
31096;BME280;17749;51.962;8.560;2024-02-21T16:29:02;99387.19;;;9.09;100.00
31096;BME280;17749;51.962;8.560;2024-02-21T16:31:29;99389.84;;;9.09;100.00
31096;BME280;17749;51.962;8.560;2024-02-21T16:33:56;99371.38;;;9.06;100.00
31096;BME280;17749;51.962;8.560;2024-02-21T16:36:24;99368.00;;;9.03;100.00
31096;BME280;17749;51.962;8.560;2024-02-21T16:38:51;99379.84;;;8.95;100.00
31096;BME280;17749;51.962;8.560;2024-02-21T16:41:20;99370.22;;;8.93;100.00
31096;BME280;17749;51.962;8.560;2024-02-21T16:43:47;99357.16;;;8.88;100.00
31096;BME280;17749;51.962;8.560;2024-02-21T16:46:15;99357.22;;;8.87;100.00
31096;BME280;17749;51.962;8.560;2024-02-21T16:48:42;99351.91;;;8.87;100.00
31096;BME280;17749;51.962;8.560;2024-02-21T16:51:09;99352.97;;;8.83;100.00
31096;BME280;17749;51.962;8.560;2024-02-21T16:53:36;99352.06;;;8.84;100.00
31096;BME280;17749;51.962;8.560;2024-02-21T16:56:03;99352.19;;;8.81;100.00
31096;BME280;17749;51.962;8.560;2024-02-21T16:58:32;99353.19;;;8.78;100.00
31096;BME280;17749;51.962;8.560;2024-02-21T17:01:04;99343.56;;;8.75;100.00
31096;BME280;17749;51.962;8.560;2024-02-21T17:03:39;99346.28;;;8.74;100.00
31096;BME280;17749;51.962;8.560;2024-02-21T17:06:06;99344.56;;;8.73;100.00
31096;BME280;17749;51.962;8.560;2024-02-21T17:08:44;99351.78;;;8.69;100.00
31096;BME280;17749;51.962;8.560;2024-02-21T17:11:11;99341.19;;;8.69;100.00
31096;BME280;17749;51.962;8.560;2024-02-21T17:13:39;99341.06;;;8.72;100.00
31096;BME280;17749;51.962;8.560;2024-02-21T17:16:06;99339.31;;;8.71;100.00
31096;BME280;17749;51.962;8.560;2024-02-21T17:18:33;99329.66;;;8.70;100.00
31096;BME280;17749;51.962;8.560;2024-02-21T17:21:00;99332.16;;;8.73;100.00
31096;BME280;17749;51.962;8.560;2024-02-21T17:23:28;99332.16;;;8.73;100.00
31096;BME280;17749;51.962;8.560;2024-02-21T17:25:55;99325.00;;;8.75;100.00
31096;BME280;17749;51.962;8.560;2024-02-21T17:28:22;99324.06;;;8.76;100.00
31096;BME280;17749;51.962;8.560;2024-02-21T17:30:50;99316.88;;;8.78;100.00
31096;BME280;17749;51.962;8.560;2024-02-21T17:33:17;99319.41;;;8.82;100.00
31096;BME280;17749;51.962;8.560;2024-02-21T17:35:44;99307.84;;;8.83;100.00
31096;BME280;17749;51.962;8.560;2024-02-21T17:38:15;99305.97;;;8.85;100.00
31096;BME280;17749;51.962;8.560;2024-02-21T17:40:42;99300.66;;;8.85;100.00
31096;BME280;17749;51.962;8.560;2024-02-21T17:43:09;99292.66;;;8.86;100.00
31096;BME280;17749;51.962;8.560;2024-02-21T17:45:37;99277.56;;;8.87;100.00
31096;BME280;17749;51.962;8.560;2024-02-21T17:48:06;99291.66;;;8.89;100.00
31096;BME280;17749;51.962;8.560;2024-02-21T17:50:33;99285.38;;;8.90;100.00
31096;BME280;17749;51.962;8.560;2024-02-21T17:53:00;99276.28;;;8.95;100.00
31096;BME280;17749;51.962;8.560;2024-02-21T17:55:28;99271.56;;;9.02;100.00
31096;BME280;17749;51.962;8.560;2024-02-21T17:57:56;99259.78;;;9.08;100.00
31096;BME280;17749;51.962;8.560;2024-02-21T18:00:23;99267.59;;;9.11;100.00
31096;BME280;17749;51.962;8.560;2024-02-21T18:02:51;99266.69;;;9.12;100.00
31096;BME280;17749;51.962;8.560;2024-02-21T18:05:18;99258.63;;;9.13;100.00
31096;BME280;17749;51.962;8.560;2024-02-21T18:07:45;99246.97;;;9.16;100.00
31096;BME280;17749;51.962;8.560;2024-02-21T18:10:13;99247.78;;;9.18;100.00
31096;BME280;17749;51.962;8.560;2024-02-21T18:12:40;99230.03;;;9.18;100.00
31096;BME280;17749;51.962;8.560;2024-02-21T18:15:07;99226.44;;;9.19;100.00
31096;BME280;17749;51.962;8.560;2024-02-21T18:17:34;99224.56;;;9.21;100.00
31096;BME280;17749;51.962;8.560;2024-02-21T18:20:02;99213.03;;;9.23;100.00
31096;BME280;17749;51.962;8.560;2024-02-21T18:22:30;99210.38;;;9.23;100.00
31096;BME280;17749;51.962;8.560;2024-02-21T18:24:57;99198.00;;;9.21;100.00
31096;BME280;17749;51.962;8.560;2024-02-21T18:27:24;99191.91;;;9.19;100.00
31096;BME280;17749;51.962;8.560;2024-02-21T18:29:51;99186.69;;;9.18;100.00
31096;BME280;17749;51.962;8.560;2024-02-21T18:32:18;99178.78;;;9.16;100.00
31096;BME280;17749;51.962;8.560;2024-02-21T18:34:45;99176.59;;;9.07;100.00
31096;BME280;17749;51.962;8.560;2024-02-21T18:37:12;99165.34;;;9.02;100.00
31096;BME280;17749;51.962;8.560;2024-02-21T18:39:40;99161.09;;;8.98;100.00
31096;BME280;17749;51.962;8.560;2024-02-21T18:42:07;99148.66;;;8.98;100.00
31096;BME280;17749;51.962;8.560;2024-02-21T18:44:34;99139.06;;;8.96;100.00
31096;BME280;17749;51.962;8.560;2024-02-21T18:47:01;99129.47;;;8.93;100.00
31096;BME280;17749;51.962;8.560;2024-02-21T18:49:28;99125.94;;;8.93;100.00
31096;BME280;17749;51.962;8.560;2024-02-21T18:51:55;99123.44;;;8.90;100.00
31096;BME280;17749;51.962;8.560;2024-02-21T18:54:22;99119.06;;;8.89;100.00
31096;BME280;17749;51.962;8.560;2024-02-21T18:56:49;99104.00;;;8.89;100.00
31096;BME280;17749;51.962;8.560;2024-02-21T18:59:16;99102.34;;;8.87;100.00
31096;BME280;17749;51.962;8.560;2024-02-21T19:01:43;99105.06;;;8.85;100.00
31096;BME280;17749;51.962;8.560;2024-02-21T19:04:10;99099.06;;;8.82;100.00
31096;BME280;17749;51.962;8.560;2024-02-21T19:06:37;99096.56;;;8.78;100.00